Flight Track Log - Related Links

Times and Time Zones

All times are in EDT time to prevent confusion due to time zone crossing. See the SKW6228 flight status page for this flight to view local times or setup timezone preferences in your user account.

Time Position Orientation Groundspeed Altitude Reporting Facility
EDT Latitude Longitude Course Direction KTS MPH feet Rate Location/Type
Fri 10:55:36 AM 39.8667 -104.8000 270° West 217 250 7,900  Level Denver TRACON
Fri 10:56:36 AM 39.9000 -104.8833 298° West 266 306 9,600 1,744 Climbing Denver TRACON
Fri 10:57:02 AM 39.8992 -104.9214 268° West 270 311 10,400 2,045 Climbing Denver Center
Fri 10:58:00 AM 39.8992 -105.2727 276° West  Level FlightAware Approximate
Fri 10:58:04 AM 39.9100 -105.0267 278° West 291 335 12,600  Level Denver Center
Fri 10:59:00 AM 39.9232 -105.4213 277° West  Level FlightAware Approximate
Fri 10:59:06 AM 39.9217 -105.1461 277° West 308 354 14,700  Level Denver Center
Fri 11:00:00 AM 39.9333 -105.5732 270° West  Level FlightAware Approximate
Fri 11:00:09 AM 39.9322 -105.2664 277° West 331 381 16,200  Level Denver Center
Fri 11:01:10 AM 39.9467 -105.3947 278° West 359 413 17,400 1,161 Climbing Denver Center
Fri 11:02:13 AM 39.9619 -105.5358 278° West 367 422 18,600 1,344 Climbing Denver Center
Fri 11:03:15 AM 39.9728 -105.6725 276° West 380 437 20,200 1,645 Climbing Denver Center
Fri 11:04:17 AM 39.9722 -105.8203 270° West 373 429 22,000 1,500 Climbing Denver Center
Fri 11:05:19 AM 39.9733 -105.9319 271° West 355 409 23,300 1,161 Climbing Denver Center
Fri 11:06:21 AM 39.9819 -106.0664 275° West 369 425 24,400 1,161 Climbing Denver Center
Fri 11:07:23 AM 39.9911 -106.2311 274° West 377 434 25,700 968 Climbing Denver Center
Fri 11:08:25 AM 39.9986 -106.3697 274° West 384 442 26,400 581 Climbing Denver Center
Fri 11:09:27 AM 40.0292 -106.5050 286° West 404 465 26,900 532 Climbing Denver Center
Fri 11:10:29 AM 40.0856 -106.6475 297° West 403 464 27,500 484 Climbing Denver Center
Fri 11:11:31 AM 40.1369 -106.7756 298° West 414 476 27,900 484 Climbing Denver Center
Fri 11:12:33 AM 40.1978 -106.9269 298° West 424 488 28,500 532 Climbing Denver Center
Fri 11:13:35 AM 40.2481 -107.0572 297° West 421 484 29,000 532 Climbing Denver Center
Fri 11:14:37 AM 40.3103 -107.2119 298° West 429 494 29,600 532 Climbing Denver Center
Fri 11:15:39 AM 40.3628 -107.3456 297° West 431 496 30,100 629 Climbing Denver Center
Fri 11:16:41 AM 40.4233 -107.5031 297° West 433 498 30,900 726 Climbing Denver Center
Fri 11:17:43 AM 40.4750 -107.6344 297° West 427 491 31,600 532 Climbing Denver Center
Fri 11:18:45 AM 40.5350 -107.7864 297° West 421 484 32,000 194 Climbing Denver Center
Fri 11:19:47 AM 40.5858 -107.9192 297° West 424 488 32,000  Level Denver Center
Fri 11:20:49 AM 40.6356 -108.0497 297° West 419 482 32,000  Level Denver Center
Fri 11:21:51 AM 40.6925 -108.1981 297° West 410 472 32,000  Level Denver Center
Fri 11:22:53 AM 40.7425 -108.3283 297° West 404 465 32,000  Level Denver Center
Fri 11:23:41 AM 40.7825 -108.4344 296° West 403 464 32,000  Level Salt Lake Center
Fri 11:24:43 AM 40.8378 -108.5833 296° West 405 466 32,000  Level Salt Lake Center
Fri 11:25:45 AM 40.8864 -108.7125 296° West 408 470 32,000  Level Salt Lake Center
Fri 11:26:47 AM 40.9428 -108.8622 297° West 407 468 32,000  Level Salt Lake Center
Fri 11:27:49 AM 40.9911 -108.9925 296° West 410 472 32,000  Level Salt Lake Center
Fri 11:28:51 AM 41.0389 -109.1225 296° West 409 471 32,000  Level Salt Lake Center
Fri 11:29:53 AM 41.0953 -109.2775 296° West 415 478 32,000  Level Salt Lake Center
Fri 11:30:55 AM 41.1442 -109.4094 296° West 415 478 32,000  Level Salt Lake Center
Fri 11:31:57 AM 41.2003 -109.5631 296° West 412 474 32,000  Level Salt Lake Center
Fri 11:32:59 AM 41.2483 -109.6947 296° West 412 474 32,000  Level Salt Lake Center
Fri 11:34:01 AM 41.3042 -109.8497 296° West 413 475 32,000  Level Salt Lake Center
Fri 11:35:03 AM 41.3511 -109.9828 295° West 414 476 32,000  Level Salt Lake Center
Fri 11:36:05 AM 41.4069 -110.1367 296° West 413 475 32,000  Level Salt Lake Center
Fri 11:37:07 AM 41.4542 -110.2686 296° West 412 474 32,000  Level Salt Lake Center
Fri 11:38:09 AM 41.5014 -110.4028 295° West 416 479 32,000  Level Salt Lake Center
Fri 11:39:11 AM 41.5553 -110.5581 295° West 414 476 32,000  Level Salt Lake Center
Fri 11:40:13 AM 41.6031 -110.6908 296° West 413 475 32,000  Level Salt Lake Center
Fri 11:41:16 AM 41.6572 -110.8464 295° West 413 475 32,000  Level Salt Lake Center
Fri 11:42:18 AM 41.7011 -110.9731 295° West 413 475 32,000  Level Salt Lake Center
Fri 11:43:20 AM 41.7581 -111.1397 295° West 414 476 32,000  Level Salt Lake Center
Fri 11:44:22 AM 41.8056 -111.2792 295° West 414 476 32,000  Level Salt Lake Center
Fri 11:45:24 AM 41.8531 -111.4189 295° West 414 476 32,000  Level Salt Lake Center
Fri 11:46:26 AM 41.9017 -111.5578 295° West 414 476 32,000  Level Salt Lake Center
Fri 11:47:28 AM 41.9483 -111.6989 294° West 415 478 32,000  Level Salt Lake Center
Fri 11:48:30 AM 42.0058 -111.8678 295° West 417 480 32,000  Level Salt Lake Center
Fri 11:49:32 AM 42.0528 -112.0092 294° West 416 479 32,000  Level Salt Lake Center
Fri 11:50:34 AM 42.0997 -112.1511 294° West 416 479 32,000  Level Salt Lake Center
Fri 11:51:36 AM 42.1475 -112.2936 294° West 418 481 32,000  Level Salt Lake Center
Fri 11:52:38 AM 42.1942 -112.4367 294° West 418 481 32,000  Level Salt Lake Center
Fri 11:53:40 AM 42.2475 -112.5744 298° West 416 479 32,000  Level Salt Lake Center
Fri 11:54:42 AM 42.3114 -112.7414 297° West 418 481 32,000  Level Salt Lake Center
Fri 11:55:44 AM 42.3642 -112.8800 297° West 417 480 32,000  Level Salt Lake Center
Fri 11:56:46 AM 42.4186 -113.0203 298° West 420 483 32,000  Level Salt Lake Center
Fri 11:57:48 AM 42.4703 -113.1606 297° West 419 482 32,000  Level Salt Lake Center
Fri 11:58:50 AM 42.5233 -113.3000 297° West 418 481 32,000  Level Salt Lake Center
Fri 11:59:52 AM 42.5750 -113.4389 297° West 415 478 32,000  Level Salt Lake Center
Fri 12:00:54 PM 42.6383 -113.6108 297° West 424 488 32,000  Level Salt Lake Center
Fri 12:01:56 PM 42.6864 -113.7406 297° West 422 486 32,000 -97 Level Salt Lake Center
Fri 12:02:58 PM 42.7417 -113.8983 296° West 429 494 31,800 -677 Descending Salt Lake Center
Fri 12:04:00 PM 42.7942 -114.0433 296° West 430 495 30,600 -1,258 Descending Salt Lake Center
Fri 12:05:02 PM 42.8481 -114.1903 297° West 434 499 29,200 -1,548 Descending Salt Lake Center
Fri 12:06:04 PM 42.9122 -114.3653 297° West 430 495 27,400 -1,065 Descending Salt Lake Center
Fri 12:07:06 PM 42.9686 -114.5147 297° West 429 494 27,000 -194 Descending Salt Lake Center
Fri 12:08:08 PM 43.0172 -114.6531 296° West 424 488 27,000 -871 Level Salt Lake Center
Fri 12:09:10 PM 43.0683 -114.7958 296° West 436 502 25,200 -2,032 Descending Salt Lake Center
Fri 12:10:12 PM 43.1281 -114.9633 296° West 434 499 22,800 -2,226 Descending Salt Lake Center
Fri 12:11:14 PM 43.1750 -115.0981 296° West 412 474 20,600 -2,226 Descending Salt Lake Center
Fri 12:12:16 PM 43.2281 -115.2497 296° West 387 445 18,200 -1,984 Descending Salt Lake Center
Fri 12:13:18 PM 43.2511 -115.3806 284° West 370 426 16,500 -1,742 Descending Salt Lake Center
Fri 12:14:20 PM 43.2717 -115.5236 281° West 368 423 14,600 -1,790 Descending Salt Lake Center
Fri 12:15:22 PM 43.3117 -115.6478 294° West 344 396 12,800 -1,597 Descending Salt Lake Center
Fri 12:16:24 PM 43.3158 -115.7736 273° West 313 360 11,300 -1,452 Descending Salt Lake Center
Fri 12:17:26 PM 43.3414 -115.8814 288° West 286 329 9,800 -1,452 Descending Salt Lake Center
Fri 12:18:28 PM 43.3717 -115.9819 293° West 275 316 8,300 -1,452 Descending Salt Lake Center
Fri 12:19:30 PM 43.3994 -116.0817 291° West 270 311 6,800 -1,113 Descending Salt Lake Center
Fri 12:20:32 PM 43.4333 -116.1728 297° West 254 292 6,000 -823 Descending Salt Lake Center
Fri 12:21:34 PM 43.4639 -116.2417 301° West 223 257 5,100 -484 Descending Salt Lake Center
Fri 12:22:36 PM 43.4942 -116.3081 302° West 196 226 5,000 -242 Descending Salt Lake Center
Fri 12:23:38 PM 43.5397 -116.3594 321° Northwest 200 230 4,600 -242 Descending Salt Lake Center
Fri 12:24:40 PM 43.5919 -116.3656 355° North 185 213 4,500 -387 Descending Salt Lake Center
Fri 12:25:42 PM 43.5925 -116.3008 89° East 182 209 3,800 -581 Descending Salt Lake Center
Fri 12:26:44 PM 43.5736 -116.2464 116° Southeast 162 186 3,300 -484 Descending Salt Lake Center

Login

Don't have an account? Register now (free) for customized features, flight alerts, and more!